Time;durP1;ratioP1;P1;durP2;ratioP2;P2;SDS_P1;SDS_P2;PMS_P1;PMS_P2;Temp;Humidity;BMP_temperature;BMP_pressure;BME280_temperature;BME280_humidity;BME280_pressure;Samples;Min_cycle;Max_cycle;Signal;HPM_P1;HPM_P2
2023/05/07 00:01:13;;;;;;;11.13;9.30;;;;;;;;;;5034465;28;20419;-80
2023/05/07 00:03:41;;;;;;;12.50;9.48;;;;;;;;;;5035088;28;20056;-78
2023/05/07 00:06:08;;;;;;;11.95;10.05;;;;;;;;;;5035313;28;20045;-78
2023/05/07 00:08:34;;;;;;;13.02;9.48;;;;;;;;;;5038762;28;20412;-78
2023/05/07 00:11:01;;;;;;;11.13;8.95;;;;;;;;;;5037949;28;20056;-82
2023/05/07 00:13:30;;;;;;;12.02;9.10;;;;;;;;;;5050103;28;20104;-79
2023/05/07 00:15:57;;;;;;;10.85;9.00;;;;;;;;;;5044982;28;20049;-79
2023/05/07 00:18:23;;;;;;;13.60;9.52;;;;;;;;;;5036954;28;20046;-80
2023/05/07 00:20:51;;;;;;;11.77;8.85;;;;;;;;;;5037442;28;20052;-79
2023/05/07 00:23:18;;;;;;;11.52;8.93;;;;;;;;;;5037110;28;20145;-78
2023/05/07 00:25:44;;;;;;;10.68;8.25;;;;;;;;;;5038275;28;20041;-79
2023/05/07 00:28:20;;;;;;;12.65;8.55;;;;;;;;;;5036626;28;20049;-79
2023/05/07 00:30:46;;;;;;;12.60;8.75;;;;;;;;;;5037273;28;20047;-78
2023/05/07 00:33:13;;;;;;;13.15;9.05;;;;;;;;;;5038437;28;20046;-81
2023/05/07 00:35:39;;;;;;;11.77;7.97;;;;;;;;;;5040642;28;20054;-80
2023/05/07 00:38:08;;;;;;;12.23;9.27;;;;;;;;;;5039251;28;20049;-81
2023/05/07 00:40:34;;;;;;;13.20;8.88;;;;;;;;;;5040330;28;20049;-79
2023/05/07 00:43:01;;;;;;;14.07;9.48;;;;;;;;;;5041205;28;20171;-80
2023/05/07 00:45:28;;;;;;;11.68;9.05;;;;;;;;;;5042061;28;20091;-80
2023/05/07 00:47:56;;;;;;;11.90;8.95;;;;;;;;;;5040264;28;20508;-80
2023/05/07 00:50:23;;;;;;;12.90;8.60;;;;;;;;;;5041444;28;20049;-79
2023/05/07 00:52:49;;;;;;;12.57;9.48;;;;;;;;;;5041777;28;20067;-80
2023/05/07 00:55:18;;;;;;;13.68;8.75;;;;;;;;;;5041169;28;20488;-81
2023/05/07 00:57:46;;;;;;;16.83;9.32;;;;;;;;;;5038120;28;20586;-79
2023/05/07 01:00:13;;;;;;;12.23;9.27;;;;;;;;;;5041229;28;20045;-80
2023/05/07 01:02:40;;;;;;;13.30;9.20;;;;;;;;;;5050979;28;20051;-79
2023/05/07 01:05:10;;;;;;;13.38;9.88;;;;;;;;;;5058976;28;20131;-80
2023/05/07 01:07:38;;;;;;;12.20;9.77;;;;;;;;;;5056039;28;20124;-80
2023/05/07 01:10:06;;;;;;;12.85;9.38;;;;;;;;;;5056951;28;20356;-79
2023/05/07 01:12:35;;;;;;;12.73;9.18;;;;;;;;;;5057466;28;20493;-81
2023/05/07 01:15:02;;;;;;;14.75;9.35;;;;;;;;;;5057862;28;20071;-79
2023/05/07 01:17:28;;;;;;;12.57;8.75;;;;;;;;;;5058357;28;20045;-79
2023/05/07 01:19:55;;;;;;;11.32;9.00;;;;;;;;;;5056781;28;20045;-80
2023/05/07 01:22:31;;;;;;;12.82;9.52;;;;;;;;;;5056019;28;20104;-79
2023/05/07 01:24:59;;;;;;;10.77;8.50;;;;;;;;;;5056360;28;20076;-79
2023/05/07 01:27:26;;;;;;;12.00;8.50;;;;;;;;;;5056012;28;20416;-80
2023/05/07 01:29:52;;;;;;;10.07;8.55;;;;;;;;;;5055716;28;20049;-78
2023/05/07 01:32:24;;;;;;;11.88;8.45;;;;;;;;;;5055467;28;20045;-81
2023/05/07 01:34:53;;;;;;;11.55;8.30;;;;;;;;;;5056771;28;20132;-79
2023/05/07 01:37:21;;;;;;;11.50;8.30;;;;;;;;;;5055637;28;20052;-80
2023/05/07 01:39:49;;;;;;;12.13;8.48;;;;;;;;;;5056740;28;20051;-80
2023/05/07 01:42:16;;;;;;;12.00;9.13;;;;;;;;;;5057142;28;20085;-79
2023/05/07 01:44:43;;;;;;;12.77;9.10;;;;;;;;;;5057693;28;20060;-79
2023/05/07 01:47:09;;;;;;;10.45;8.65;;;;;;;;;;5060614;28;20112;-80
2023/05/07 01:49:36;;;;;;;11.35;8.55;;;;;;;;;;5059193;28;20045;-80
2023/05/07 01:52:03;;;;;;;10.75;8.30;;;;;;;;;;5058773;28;20059;-79
2023/05/07 01:54:30;;;;;;;11.52;8.43;;;;;;;;;;5059390;28;20136;-79
2023/05/07 01:56:58;;;;;;;10.55;8.07;;;;;;;;;;5059825;28;20049;-79
2023/05/07 01:59:25;;;;;;;11.57;8.60;;;;;;;;;;5059445;28;20047;-79
2023/05/07 02:01:51;;;;;;;9.95;8.20;;;;;;;;;;5059339;28;20507;-79
2023/05/07 02:04:18;;;;;;;10.75;7.95;;;;;;;;;;5060109;28;20045;-79
2023/05/07 02:06:44;;;;;;;10.32;8.52;;;;;;;;;;5059652;28;20045;-79
2023/05/07 02:09:11;;;;;;;9.13;7.38;;;;;;;;;;5058984;28;20052;-79
2023/05/07 02:11:38;;;;;;;9.82;7.68;;;;;;;;;;5059861;28;20045;-78
2023/05/07 02:14:06;;;;;;;9.18;7.53;;;;;;;;;;5060205;28;20123;-79
2023/05/07 02:16:33;;;;;;;9.23;7.38;;;;;;;;;;5059645;28;20049;-79
2023/05/07 02:18:59;;;;;;;8.82;7.47;;;;;;;;;;5060486;28;20128;-79
2023/05/07 02:21:26;;;;;;;9.60;7.88;;;;;;;;;;5059745;28;20045;-79
2023/05/07 02:23:53;;;;;;;10.45;7.72;;;;;;;;;;5058936;28;20062;-79
2023/05/07 02:26:19;;;;;;;9.77;7.85;;;;;;;;;;5059219;28;20148;-80
2023/05/07 02:28:46;;;;;;;9.65;7.88;;;;;;;;;;5058654;28;20419;-80
2023/05/07 02:31:14;;;;;;;9.43;8.07;;;;;;;;;;5059639;28;20045;-79
2023/05/07 02:33:40;;;;;;;8.93;7.35;;;;;;;;;;5060261;28;20076;-79
2023/05/07 02:36:08;;;;;;;8.88;7.90;;;;;;;;;;5060083;28;20045;-78
2023/05/07 02:38:35;;;;;;;9.18;7.65;;;;;;;;;;5058933;28;20055;-79
2023/05/07 02:41:01;;;;;;;9.73;7.38;;;;;;;;;;5060573;28;20045;-79
2023/05/07 02:43:28;;;;;;;10.82;7.32;;;;;;;;;;5060708;28;20049;-79
2023/05/07 02:46:01;;;;;;;8.25;7.25;;;;;;;;;;5061195;28;20496;-78
2023/05/07 02:48:29;;;;;;;9.55;7.38;;;;;;;;;;5060668;28;20053;-79
2023/05/07 02:50:56;;;;;;;9.77;7.65;;;;;;;;;;5059666;28;20139;-79
2023/05/07 02:53:25;;;;;;;9.95;7.53;;;;;;;;;;5058177;28;20109;-79
2023/05/07 02:55:51;;;;;;;8.73;7.80;;;;;;;;;;5057158;28;20045;-79
2023/05/07 02:58:18;;;;;;;9.77;7.13;;;;;;;;;;5058406;28;20059;-79
2023/05/07 03:00:45;;;;;;;8.90;6.90;;;;;;;;;;5058302;28;20045;-79
2023/05/07 03:03:11;;;;;;;9.15;7.55;;;;;;;;;;5058330;28;20049;-79
2023/05/07 03:05:39;;;;;;;8.07;7.28;;;;;;;;;;5057602;28;20052;-78
2023/05/07 03:08:06;;;;;;;9.30;7.30;;;;;;;;;;5067245;28;20108;-77
2023/05/07 03:10:32;;;;;;;8.63;7.72;;;;;;;;;;5070621;28;20108;-79
2023/05/07 03:12:59;;;;;;;9.30;7.78;;;;;;;;;;5058915;28;20045;-79
2023/05/07 03:15:26;;;;;;;8.88;7.57;;;;;;;;;;5058730;28;20048;-80
2023/05/07 03:17:52;;;;;;;9.98;7.22;;;;;;;;;;5058097;28;20393;-79
2023/05/07 03:20:19;;;;;;;9.02;7.70;;;;;;;;;;5058343;28;20410;-79
2023/05/07 03:22:47;;;;;;;9.15;7.55;;;;;;;;;;5057803;28;20076;-78
2023/05/07 03:25:14;;;;;;;8.60;7.50;;;;;;;;;;5057528;28;20055;-79
2023/05/07 03:27:42;;;;;;;8.75;7.20;;;;;;;;;;5057514;28;20051;-78
2023/05/07 03:30:10;;;;;;;8.25;7.20;;;;;;;;;;5056446;28;20060;-78
2023/05/07 03:32:36;;;;;;;9.73;7.13;;;;;;;;;;5056371;28;20051;-78
2023/05/07 03:35:03;;;;;;;8.23;6.95;;;;;;;;;;5057485;28;20045;-78
2023/05/07 03:37:30;;;;;;;8.73;7.28;;;;;;;;;;5056600;28;20060;-78
2023/05/07 03:39:58;;;;;;;8.85;6.45;;;;;;;;;;5055614;28;20049;-78
2023/05/07 03:42:24;;;;;;;7.63;6.82;;;;;;;;;;5057112;28;20380;-79
2023/05/07 03:44:51;;;;;;;8.82;6.60;;;;;;;;;;5055704;28;20041;-79
2023/05/07 03:47:18;;;;;;;9.75;7.50;;;;;;;;;;5057061;28;20045;-79
2023/05/07 03:49:44;;;;;;;7.97;6.93;;;;;;;;;;5056829;28;20127;-79
2023/05/07 03:52:11;;;;;;;9.60;7.50;;;;;;;;;;5056639;28;20566;-78
2023/05/07 03:54:38;;;;;;;7.80;6.53;;;;;;;;;;5054681;28;20051;-78
2023/05/07 03:57:05;;;;;;;8.82;7.10;;;;;;;;;;5054037;28;20522;-79
2023/05/07 03:59:32;;;;;;;8.38;6.82;;;;;;;;;;5054416;28;20049;-79
2023/05/07 04:01:59;;;;;;;7.70;6.82;;;;;;;;;;5054257;28;20049;-79
2023/05/07 04:04:26;;;;;;;9.32;7.35;;;;;;;;;;5054782;28;20068;-79
2023/05/07 04:06:52;;;;;;;9.52;6.65;;;;;;;;;;5054589;28;20511;-79
2023/05/07 04:09:19;;;;;;;10.02;7.03;;;;;;;;;;5054940;28;20526;-79
2023/05/07 04:11:46;;;;;;;13.70;7.93;;;;;;;;;;5056446;28;20095;-80
2023/05/07 04:14:14;;;;;;;9.07;7.63;;;;;;;;;;5057834;28;20044;-81
2023/05/07 04:16:41;;;;;;;9.25;6.82;;;;;;;;;;5055892;28;20049;-78
2023/05/07 04:19:07;;;;;;;7.97;6.95;;;;;;;;;;5057261;28;20071;-80
2023/05/07 04:21:34;;;;;;;9.05;6.95;;;;;;;;;;5056730;28;20135;-79
2023/05/07 04:24:01;;;;;;;9.05;7.05;;;;;;;;;;5056872;28;20415;-79
2023/05/07 04:26:28;;;;;;;8.75;7.20;;;;;;;;;;5057344;28;20136;-79
2023/05/07 04:28:54;;;;;;;7.82;6.90;;;;;;;;;;5056275;28;20053;-79
2023/05/07 04:31:22;;;;;;;9.85;7.07;;;;;;;;;;5056907;28;20108;-79
2023/05/07 04:33:50;;;;;;;7.90;6.75;;;;;;;;;;5056887;28;20041;-79
2023/05/07 04:36:17;;;;;;;11.40;7.13;;;;;;;;;;5056634;28;20047;-79
2023/05/07 04:38:44;;;;;;;11.45;7.43;;;;;;;;;;5056066;28;20113;-79
2023/05/07 04:41:13;;;;;;;11.40;7.45;;;;;;;;;;5056049;28;20048;-78
2023/05/07 04:43:41;;;;;;;9.38;7.30;;;;;;;;;;5056606;28;20049;-79
2023/05/07 04:46:08;;;;;;;10.57;7.65;;;;;;;;;;5056524;28;20053;-79
2023/05/07 04:48:36;;;;;;;8.75;6.97;;;;;;;;;;5057751;28;20102;-79
2023/05/07 04:51:02;;;;;;;7.93;6.53;;;;;;;;;;5056590;28;20549;-80
2023/05/07 04:53:29;;;;;;;9.88;7.10;;;;;;;;;;5056177;28;20049;-79
2023/05/07 04:55:57;;;;;;;8.10;7.15;;;;;;;;;;5055830;28;20129;-79
2023/05/07 04:58:24;;;;;;;9.20;7.75;;;;;;;;;;5056233;28;20052;-78
2023/05/07 05:00:50;;;;;;;9.70;7.40;;;;;;;;;;5055269;28;20053;-79
2023/05/07 05:03:17;;;;;;;8.52;7.07;;;;;;;;;;5059942;28;20044;-78
2023/05/07 05:05:45;;;;;;;8.73;7.05;;;;;;;;;;5067914;28;20052;-79
2023/05/07 05:08:11;;;;;;;9.40;7.38;;;;;;;;;;5056097;28;20045;-78
2023/05/07 05:10:38;;;;;;;8.95;7.10;;;;;;;;;;5064058;28;20060;-79
2023/05/07 05:13:05;;;;;;;7.75;6.50;;;;;;;;;;5056438;28;20052;-80
2023/05/07 05:15:34;;;;;;;9.40;7.60;;;;;;;;;;5036877;28;20056;-80
2023/05/07 05:18:01;;;;;;;10.13;7.67;;;;;;;;;;5034098;28;20501;-80
2023/05/07 05:20:27;;;;;;;12.15;8.23;;;;;;;;;;5037444;28;20045;-80
2023/05/07 05:22:55;;;;;;;8.95;6.43;;;;;;;;;;5038569;28;20504;-79
2023/05/07 05:25:22;;;;;;;8.07;6.80;;;;;;;;;;5036541;28;20136;-79
2023/05/07 05:27:48;;;;;;;7.80;6.30;;;;;;;;;;5035882;28;20136;-78
2023/05/07 05:30:15;;;;;;;8.07;6.82;;;;;;;;;;5036282;28;20049;-78
2023/05/07 05:32:41;;;;;;;7.75;6.10;;;;;;;;;;5036316;28;20050;-81
2023/05/07 05:35:09;;;;;;;8.07;6.38;;;;;;;;;;5036564;28;20042;-77
2023/05/07 05:37:35;;;;;;;8.75;6.80;;;;;;;;;;5036340;28;20049;-77
2023/05/07 05:40:04;;;;;;;8.30;6.22;;;;;;;;;;5035873;28;20048;-79
2023/05/07 05:42:31;;;;;;;7.53;6.55;;;;;;;;;;5037207;28;20061;-77
2023/05/07 05:44:57;;;;;;;7.88;6.40;;;;;;;;;;5056408;28;20049;-78
2023/05/07 05:47:24;;;;;;;7.13;6.00;;;;;;;;;;5062041;28;20068;-79
2023/05/07 05:49:50;;;;;;;10.35;5.80;;;;;;;;;;5068047;28;20051;-78
2023/05/07 05:52:17;;;;;;;6.90;6.20;;;;;;;;;;5067225;28;20055;-78
2023/05/07 05:54:44;;;;;;;7.50;6.10;;;;;;;;;;5064009;28;20099;-77
2023/05/07 05:57:12;;;;;;;8.70;6.18;;;;;;;;;;5056777;28;20077;-79
2023/05/07 05:59:39;;;;;;;7.95;5.60;;;;;;;;;;5057361;28;20393;-76
2023/05/07 06:02:05;;;;;;;6.15;5.10;;;;;;;;;;5058895;28;20052;-77
2023/05/07 06:04:32;;;;;;;7.05;5.35;;;;;;;;;;5060358;28;20488;-76
2023/05/07 06:06:58;;;;;;;8.23;5.18;;;;;;;;;;5066717;28;20687;-78
2023/05/07 06:09:25;;;;;;;7.13;5.55;;;;;;;;;;5061006;28;20060;-78
2023/05/07 06:11:52;;;;;;;7.50;5.63;;;;;;;;;;5058842;28;20075;-78
2023/05/07 06:14:20;;;;;;;8.00;5.80;;;;;;;;;;5055886;28;20515;-78
2023/05/07 06:16:46;;;;;;;6.75;5.68;;;;;;;;;;5056128;28;20067;-79
2023/05/07 06:19:13;;;;;;;7.70;5.35;;;;;;;;;;5054601;28;20128;-77
2023/05/07 06:21:40;;;;;;;6.95;5.75;;;;;;;;;;5055080;28;20045;-79
2023/05/07 06:24:07;;;;;;;7.65;5.30;;;;;;;;;;5054794;28;20048;-77
2023/05/07 06:26:34;;;;;;;8.30;5.28;;;;;;;;;;5056391;28;20527;-79
2023/05/07 06:29:01;;;;;;;6.90;5.30;;;;;;;;;;5057113;28;20106;-79
2023/05/07 06:31:31;;;;;;;8.00;6.07;;;;;;;;;;5055563;28;20113;-77
2023/05/07 06:33:58;;;;;;;7.18;5.03;;;;;;;;;;5054751;28;20508;-77
2023/05/07 06:36:26;;;;;;;8.00;5.30;;;;;;;;;;5044961;28;20100;-78
2023/05/07 06:38:52;;;;;;;8.38;5.63;;;;;;;;;;5034364;28;20493;-78
2023/05/07 06:41:20;;;;;;;6.38;5.18;;;;;;;;;;5034861;28;20060;-78
2023/05/07 06:43:46;;;;;;;5.53;4.53;;;;;;;;;;5034951;28;20056;-78
2023/05/07 06:46:13;;;;;;;6.57;4.45;;;;;;;;;;5035157;28;20511;-79
2023/05/07 06:48:41;;;;;;;7.05;4.40;;;;;;;;;;5036313;28;20041;-79
2023/05/07 06:51:08;;;;;;;6.65;4.80;;;;;;;;;;5038543;28;20045;-78
2023/05/07 06:53:35;;;;;;;6.00;4.47;;;;;;;;;;5035354;28;20080;-78
2023/05/07 06:56:02;;;;;;;6.90;4.68;;;;;;;;;;5036879;28;20413;-77
2023/05/07 06:58:29;;;;;;;5.18;3.95;;;;;;;;;;5035374;28;20076;-78
2023/05/07 07:00:55;;;;;;;4.80;3.70;;;;;;;;;;5045578;28;20049;-77
2023/05/07 07:03:22;;;;;;;6.78;4.15;;;;;;;;;;5046833;28;20060;-77
2023/05/07 07:05:52;;;;;;;6.63;4.03;;;;;;;;;;5042407;28;20053;-77
2023/05/07 07:08:21;;;;;;;5.90;3.40;;;;;;;;;;5045180;28;20053;-78
2023/05/07 07:10:47;;;;;;;6.25;4.45;;;;;;;;;;5046229;28;20045;-79
2023/05/07 07:13:14;;;;;;;7.18;4.25;;;;;;;;;;5036744;28;20041;-78
2023/05/07 07:15:41;;;;;;;5.40;4.00;;;;;;;;;;5034210;28;20045;-77
2023/05/07 07:18:08;;;;;;;5.95;4.72;;;;;;;;;;5034304;28;20075;-79
2023/05/07 07:20:34;;;;;;;6.68;3.88;;;;;;;;;;5033926;28;20084;-78
2023/05/07 07:23:02;;;;;;;5.78;4.15;;;;;;;;;;5034549;28;20060;-78
2023/05/07 07:25:29;;;;;;;5.20;3.70;;;;;;;;;;5034246;28;20046;-79
2023/05/07 07:27:55;;;;;;;6.30;4.28;;;;;;;;;;5034358;28;20100;-77
2023/05/07 07:30:22;;;;;;;5.28;3.75;;;;;;;;;;5034060;28;20052;-79
2023/05/07 07:32:49;;;;;;;7.10;4.75;;;;;;;;;;5034548;28;20128;-76
2023/05/07 07:35:15;;;;;;;5.88;4.38;;;;;;;;;;5034576;28;20057;-77
2023/05/07 07:37:42;;;;;;;7.78;4.95;;;;;;;;;;5034892;28;20049;-78
2023/05/07 07:40:12;;;;;;;5.90;4.18;;;;;;;;;;5034852;28;20056;-79
2023/05/07 07:42:39;;;;;;;6.10;4.47;;;;;;;;;;5036060;28;20132;-78
2023/05/07 07:45:06;;;;;;;5.93;4.65;;;;;;;;;;5035353;28;20515;-78
2023/05/07 07:47:33;;;;;;;6.65;5.28;;;;;;;;;;5034176;28;20428;-79
2023/05/07 07:50:00;;;;;;;6.40;4.50;;;;;;;;;;5033677;28;20045;-78
2023/05/07 07:52:26;;;;;;;6.10;4.88;;;;;;;;;;5036045;28;20049;-80
2023/05/07 07:54:53;;;;;;;6.15;4.68;;;;;;;;;;5038099;28;20052;-79
2023/05/07 07:57:21;;;;;;;5.45;4.32;;;;;;;;;;5038082;28;20132;-79
2023/05/07 07:59:47;;;;;;;9.23;4.75;;;;;;;;;;5038347;28;20499;-80
2023/05/07 08:02:14;;;;;;;7.28;4.63;;;;;;;;;;5045484;28;20059;-80
2023/05/07 08:04:41;;;;;;;6.85;4.65;;;;;;;;;;5060934;28;20068;-80
2023/05/07 08:07:08;;;;;;;9.75;5.57;;;;;;;;;;5058648;28;20088;-79
2023/05/07 08:09:35;;;;;;;8.23;4.90;;;;;;;;;;5058503;28;20538;-79
2023/05/07 08:12:02;;;;;;;5.47;4.60;;;;;;;;;;5058182;28;20132;-79
2023/05/07 08:14:30;;;;;;;6.30;4.25;;;;;;;;;;5057060;28;20049;-80
2023/05/07 08:16:56;;;;;;;6.38;4.75;;;;;;;;;;5058196;28;20116;-80
2023/05/07 08:19:23;;;;;;;7.60;4.90;;;;;;;;;;5057347;28;20055;-80
2023/05/07 08:21:50;;;;;;;8.02;4.60;;;;;;;;;;5057696;28;20049;-79
2023/05/07 08:24:17;;;;;;;5.95;4.88;;;;;;;;;;5057685;28;20049;-79
2023/05/07 08:26:44;;;;;;;7.68;5.10;;;;;;;;;;5058002;28;20045;-79
2023/05/07 08:29:11;;;;;;;6.30;4.55;;;;;;;;;;5057115;28;20051;-80
2023/05/07 08:31:39;;;;;;;7.10;4.68;;;;;;;;;;5055734;28;20073;-76
2023/05/07 08:34:15;;;;;;;8.75;5.40;;;;;;;;;;5053562;28;20052;-78
2023/05/07 08:36:41;;;;;;;9.98;6.60;;;;;;;;;;5053331;28;20053;-77
2023/05/07 08:39:08;;;;;;;11.63;5.75;;;;;;;;;;5052470;28;20048;-78
2023/05/07 08:41:35;;;;;;;7.45;5.55;;;;;;;;;;5052305;28;20051;-78
2023/05/07 08:44:04;;;;;;;7.18;5.03;;;;;;;;;;5053412;28;20045;-78
2023/05/07 08:46:33;;;;;;;5.97;4.57;;;;;;;;;;5053290;28;20075;-80
2023/05/07 08:49:01;;;;;;;5.18;4.35;;;;;;;;;;5056741;28;20049;-79
2023/05/07 08:51:28;;;;;;;5.70;4.75;;;;;;;;;;5057461;28;20071;-79
2023/05/07 08:53:55;;;;;;;6.22;4.68;;;;;;;;;;5055546;28;20044;-79
2023/05/07 08:56:22;;;;;;;6.95;4.47;;;;;;;;;;5057275;28;20084;-80
2023/05/07 08:58:48;;;;;;;7.05;4.25;;;;;;;;;;5058583;28;20051;-80
2023/05/07 09:01:17;;;;;;;7.55;4.72;;;;;;;;;;5063395;28;20095;-79
2023/05/07 09:03:47;;;;;;;5.47;4.47;;;;;;;;;;5068603;28;20077;-80
2023/05/07 09:06:16;;;;;;;6.00;4.68;;;;;;;;;;5059409;28;20475;-80
2023/05/07 09:08:50;;;;;;;4.75;3.85;;;;;;;;;;5052414;28;20055;-77
2023/05/07 09:11:16;;;;;;;4.95;3.88;;;;;;;;;;5053335;28;20311;-77
2023/05/07 09:13:43;;;;;;;5.93;3.92;;;;;;;;;;5053692;28;20041;-79
2023/05/07 09:16:11;;;;;;;6.25;4.40;;;;;;;;;;5053155;28;20514;-80
2023/05/07 09:18:42;;;;;;;5.60;3.63;;;;;;;;;;5053650;28;20045;-79
2023/05/07 09:21:11;;;;;;;4.95;3.55;;;;;;;;;;5053081;28;20055;-77
2023/05/07 09:23:39;;;;;;;7.18;3.97;;;;;;;;;;5053199;28;20423;-78
2023/05/07 09:26:08;;;;;;;6.00;4.00;;;;;;;;;;5053359;28;20060;-79
2023/05/07 09:28:34;;;;;;;5.38;3.80;;;;;;;;;;5052993;28;20131;-80
2023/05/07 09:31:01;;;;;;;6.13;4.63;;;;;;;;;;5052294;28;20049;-77
2023/05/07 09:33:29;;;;;;;7.13;4.00;;;;;;;;;;5052105;28;20051;-77
2023/05/07 09:35:56;;;;;;;6.22;3.85;;;;;;;;;;5052559;28;20451;-77
2023/05/07 09:38:25;;;;;;;5.90;4.30;;;;;;;;;;5051953;28;20048;-78
2023/05/07 09:41:03;;;;;;;5.70;3.70;;;;;;;;;;5052558;28;20128;-78
2023/05/07 09:43:33;;;;;;;4.93;3.88;;;;;;;;;;5052262;28;20037;-78
2023/05/07 09:46:03;;;;;;;6.18;3.85;;;;;;;;;;5052392;28;20049;-77
2023/05/07 09:48:31;;;;;;;5.03;3.53;;;;;;;;;;5051886;28;20056;-77
2023/05/07 09:50:59;;;;;;;6.30;4.40;;;;;;;;;;5052632;28;20051;-79
2023/05/07 09:53:26;;;;;;;6.68;4.38;;;;;;;;;;5055598;28;20083;-79
2023/05/07 09:55:53;;;;;;;6.45;3.50;;;;;;;;;;5055205;28;20041;-78
2023/05/07 09:58:23;;;;;;;5.70;3.45;;;;;;;;;;5054161;28;20042;-81
2023/05/07 10:00:51;;;;;;;4.68;2.90;;;;;;;;;;5058397;28;20056;-80
2023/05/07 10:03:20;;;;;;;4.82;3.08;;;;;;;;;;5063172;28;20073;-85
2023/05/07 10:05:48;;;;;;;4.70;3.22;;;;;;;;;;5060665;28;20045;-85
2023/05/07 10:08:16;;;;;;;4.13;2.70;;;;;;;;;;5060615;28;20048;-84
2023/05/07 10:10:43;;;;;;;4.72;2.78;;;;;;;;;;5062277;28;20049;-81
2023/05/07 10:13:11;;;;;;;4.57;2.70;;;;;;;;;;5060006;28;20045;-83
2023/05/07 10:15:39;;;;;;;4.93;2.45;;;;;;;;;;5058943;28;20045;-79
2023/05/07 10:18:07;;;;;;;5.43;2.45;;;;;;;;;;5056327;28;20136;-76
2023/05/07 10:20:35;;;;;;;4.93;3.33;;;;;;;;;;5056817;28;20049;-81
2023/05/07 10:23:05;;;;;;;5.25;3.08;;;;;;;;;;5055008;28;20041;-76
2023/05/07 10:25:33;;;;;;;4.40;2.60;;;;;;;;;;5054952;28;20053;-76
2023/05/07 10:28:05;;;;;;;4.45;3.30;;;;;;;;;;5055137;28;20208;-77
2023/05/07 10:30:48;;;;;;;3.47;1.83;;;;;;;;;;5054570;28;20051;-77
2023/05/07 10:33:20;;;;;;;4.07;2.20;;;;;;;;;;5054970;28;20411;-77
2023/05/07 10:35:48;;;;;;;3.83;2.40;;;;;;;;;;5054747;28;20133;-78
2023/05/07 10:38:15;;;;;;;5.03;2.58;;;;;;;;;;5054376;28;20481;-78
2023/05/07 10:40:41;;;;;;;3.55;2.40;;;;;;;;;;5054454;28;20045;-78
2023/05/07 10:43:08;;;;;;;4.13;2.78;;;;;;;;;;5054321;28;20148;-78
2023/05/07 10:45:35;;;;;;;4.93;2.75;;;;;;;;;;5054594;28;20055;-77
2023/05/07 10:48:09;;;;;;;3.92;2.47;;;;;;;;;;5053848;28;20468;-78
2023/05/07 10:50:36;;;;;;;4.50;2.92;;;;;;;;;;5053737;28;20053;-80
2023/05/07 10:53:23;;;;;;;4.65;3.03;;;;;;;;;;5054385;28;20057;-78
2023/05/07 10:55:52;;;;;;;5.63;2.80;;;;;;;;;;5053801;28;20085;-77
2023/05/07 10:58:24;;;;;;;4.47;3.35;;;;;;;;;;5054647;28;20049;-78
2023/05/07 11:00:52;;;;;;;5.20;3.10;;;;;;;;;;5054775;28;20565;-78
2023/05/07 11:03:22;;;;;;;4.28;2.70;;;;;;;;;;5055041;28;20488;-79
2023/05/07 11:06:09;;;;;;;3.50;2.20;;;;;;;;;;5055376;28;20052;-77
2023/05/07 11:08:54;;;;;;;4.88;3.28;;;;;;;;;;5054493;28;20081;-77
2023/05/07 11:11:47;;;;;;;4.72;3.20;;;;;;;;;;5057106;28;20067;-79
2023/05/07 11:14:44;;;;;;;6.28;3.55;;;;;;;;;;5060698;28;20091;-79
2023/05/07 11:17:12;;;;;;;6.30;3.38;;;;;;;;;;5055308;28;20053;-77
2023/05/07 11:19:53;;;;;;;3.55;2.58;;;;;;;;;;5056671;28;20053;-78
2023/05/07 11:22:40;;;;;;;5.15;2.65;;;;;;;;;;5016361;28;20068;-78
2023/05/07 11:25:07;;;;;;;4.97;2.58;;;;;;;;;;5018973;28;20057;-79
2023/05/07 11:27:35;;;;;;;5.07;3.40;;;;;;;;;;5018205;28;20113;-79
2023/05/07 11:30:01;;;;;;;4.75;3.08;;;;;;;;;;5016974;28;20128;-78
2023/05/07 11:32:30;;;;;;;4.93;3.20;;;;;;;;;;5015361;28;20512;-76
2023/05/07 11:34:59;;;;;;;5.40;3.65;;;;;;;;;;5014536;28;20077;-78
2023/05/07 11:37:29;;;;;;;4.60;3.33;;;;;;;;;;5023367;28;20049;-77
2023/05/07 11:40:05;;;;;;;4.30;2.72;;;;;;;;;;5033628;28;20050;-78
2023/05/07 11:42:33;;;;;;;5.07;3.42;;;;;;;;;;5033912;28;20050;-78
2023/05/07 11:45:00;;;;;;;4.45;3.15;;;;;;;;;;5034080;28;20100;-77
2023/05/07 11:47:27;;;;;;;5.65;4.00;;;;;;;;;;5033497;28;20140;-77
2023/05/07 11:49:55;;;;;;;4.53;3.20;;;;;;;;;;5032693;28;20049;-78
2023/05/07 11:52:24;;;;;;;6.18;3.10;;;;;;;;;;5033517;28;20072;-77
2023/05/07 11:54:51;;;;;;;4.73;3.23;;;;;;;;;;5033946;28;20054;-77
2023/05/07 11:57:18;;;;;;;4.40;3.35;;;;;;;;;;5037379;28;20465;-77
2023/05/07 11:59:46;;;;;;;5.60;3.40;;;;;;;;;;5038303;28;20133;-77
2023/05/07 12:02:14;;;;;;;4.22;2.42;;;;;;;;;;5035768;28;20041;-78
2023/05/07 12:04:41;;;;;;;5.80;3.42;;;;;;;;;;5034042;28;20423;-76
2023/05/07 12:07:13;;;;;;;5.30;3.38;;;;;;;;;;5033226;28;20045;-77
2023/05/07 12:09:41;;;;;;;4.85;3.17;;;;;;;;;;5033525;28;20045;-77
2023/05/07 12:12:08;;;;;;;4.05;2.60;;;;;;;;;;5033329;28;20129;-78
2023/05/07 12:14:38;;;;;;;7.45;3.95;;;;;;;;;;5032995;28;20049;-77
2023/05/07 12:17:05;;;;;;;;;;;;;;;;;;5033441;28;20041;-78
2023/05/07 12:19:32;;;;;;;4.10;2.65;;;;;;;;;;5033131;28;19967;-78
2023/05/07 12:21:59;;;;;;;4.10;2.78;;;;;;;;;;5034606;28;20049;-80
2023/05/07 12:24:26;;;;;;;4.63;2.50;;;;;;;;;;5037164;28;20077;-78
2023/05/07 12:26:54;;;;;;;4.47;2.28;;;;;;;;;;5036813;28;20049;-78
2023/05/07 12:29:22;;;;;;;4.10;2.60;;;;;;;;;;5035075;28;20060;-78
2023/05/07 12:35:14;;;;;;;4.70;2.95;;;;;;;;;;5029778;28;20067;-79
2023/05/07 12:37:41;;;;;;;5.75;3.55;;;;;;;;;;5042183;28;20471;-78
2023/05/07 12:40:11;;;;;;;4.15;2.67;;;;;;;;;;5039108;28;20056;-80
2023/05/07 12:42:44;;;;;;;4.32;2.60;;;;;;;;;;5035989;28;20125;-79
2023/05/07 12:45:11;;;;;;;3.25;2.05;;;;;;;;;;5035289;28;20053;-78
2023/05/07 12:47:38;;;;;;;4.18;2.42;;;;;;;;;;5035161;28;20083;-78
2023/05/07 12:50:07;;;;;;;3.88;2.50;;;;;;;;;;5034890;28;20046;-78
2023/05/07 12:52:34;;;;;;;4.32;2.30;;;;;;;;;;5035403;28;20073;-78
2023/05/07 12:55:05;;;;;;;4.38;2.35;;;;;;;;;;5036855;28;20084;-80
2023/05/07 12:57:40;;;;;;;4.20;2.17;;;;;;;;;;5036502;28;20046;-79
2023/05/07 13:00:08;;;;;;;4.18;2.17;;;;;;;;;;5036479;28;20049;-78
2023/05/07 13:02:35;;;;;;;3.28;2.10;;;;;;;;;;5036690;28;20053;-77
2023/05/07 13:05:02;;;;;;;4.22;2.05;;;;;;;;;;5035024;28;20068;-79
2023/05/07 13:07:29;;;;;;;3.45;2.00;;;;;;;;;;5034380;28;20042;-79
2023/05/07 13:09:55;;;;;;;3.30;2.10;;;;;;;;;;5035055;28;20060;-77
2023/05/07 13:15:04;;;;;;;4.65;2.67;;;;;;;;;;4989122;28;20050;-79
2023/05/07 13:17:31;;;;;;;4.57;2.40;;;;;;;;;;5026742;28;20044;-79
2023/05/07 13:19:58;;;;;;;4.03;2.70;;;;;;;;;;5034786;28;20056;-78
2023/05/07 13:22:24;;;;;;;3.80;2.50;;;;;;;;;;5034027;28;20048;-79
2023/05/07 13:24:51;;;;;;;5.13;2.60;;;;;;;;;;5034456;28;20046;-78
2023/05/07 13:27:19;;;;;;;6.18;2.80;;;;;;;;;;5077188;22;20175;-66
2023/05/07 13:29:45;;;;;;;5.20;2.83;;;;;;;;;;5074954;28;20084;-67
2023/05/07 13:32:14;;;;;;;4.97;3.10;;;;;;;;;;5092262;28;20048;-67
2023/05/07 13:34:40;;;;;;;4.90;2.90;;;;;;;;;;5092430;28;20412;-67
2023/05/07 13:37:08;;;;;;;4.75;2.60;;;;;;;;;;5092207;28;20070;-67
2023/05/07 13:39:35;;;;;;;5.00;3.30;;;;;;;;;;5092464;28;20445;-67
2023/05/07 13:42:02;;;;;;;3.80;2.65;;;;;;;;;;5095992;28;20048;-67
2023/05/07 13:44:28;;;;;;;4.18;3.10;;;;;;;;;;5096071;28;20052;-67
2023/05/07 13:46:55;;;;;;;4.05;2.72;;;;;;;;;;5095935;28;20065;-67
2023/05/07 13:49:23;;;;;;;4.22;3.30;;;;;;;;;;5095982;28;20044;-66
2023/05/07 13:51:50;;;;;;;5.00;2.67;;;;;;;;;;5095755;28;20439;-66
2023/05/07 13:54:17;;;;;;;4.85;3.28;;;;;;;;;;5095664;28;20047;-67
2023/05/07 13:56:44;;;;;;;6.10;3.20;;;;;;;;;;5095841;28;20052;-66
2023/05/07 13:59:12;;;;;;;4.60;3.47;;;;;;;;;;5095476;28;20511;-67
2023/05/07 14:01:39;;;;;;;4.70;3.30;;;;;;;;;;5095412;28;20055;-67
2023/05/07 14:04:05;;;;;;;4.40;3.25;;;;;;;;;;5095537;28;20056;-67
2023/05/07 14:06:34;;;;;;;4.32;2.90;;;;;;;;;;5095285;28;20059;-67
2023/05/07 14:09:00;;;;;;;5.35;3.40;;;;;;;;;;5095623;28;20493;-68
2023/05/07 14:11:27;;;;;;;6.20;3.75;;;;;;;;;;5095331;28;20059;-67
2023/05/07 14:13:54;;;;;;;6.40;3.70;;;;;;;;;;5095593;28;20052;-68
2023/05/07 14:16:21;;;;;;;4.55;3.25;;;;;;;;;;5095648;28;20048;-67
2023/05/07 14:18:47;;;;;;;3.92;2.92;;;;;;;;;;5095575;28;20055;-67
2023/05/07 14:21:14;;;;;;;3.75;3.20;;;;;;;;;;5095220;28;20048;-69
2023/05/07 14:23:43;;;;;;;5.47;3.50;;;;;;;;;;5095383;28;20457;-68
2023/05/07 14:26:10;;;;;;;4.82;3.13;;;;;;;;;;5095273;28;20082;-68
2023/05/07 14:28:39;;;;;;;5.50;3.95;;;;;;;;;;5095369;28;20056;-67
2023/05/07 14:31:06;;;;;;;4.57;3.43;;;;;;;;;;5095214;28;20483;-69
2023/05/07 14:33:33;;;;;;;5.40;3.00;;;;;;;;;;5095630;28;20064;-67
2023/05/07 14:35:59;;;;;;;4.30;3.55;;;;;;;;;;5095366;28;20064;-66
2023/05/07 14:38:26;;;;;;;4.32;3.00;;;;;;;;;;5095443;28;20052;-66
2023/05/07 14:40:56;;;;;;;4.78;3.08;;;;;;;;;;5095261;28;20059;-67
2023/05/07 14:43:23;;;;;;;4.47;2.95;;;;;;;;;;5094215;28;20412;-69
2023/05/07 14:45:49;;;;;;;4.82;3.03;;;;;;;;;;5094841;28;20470;-68
2023/05/07 14:48:17;;;;;;;4.65;3.20;;;;;;;;;;5095669;28;20047;-67
2023/05/07 14:50:45;;;;;;;4.50;3.50;;;;;;;;;;5095294;28;20077;-68